Time;durP1;ratioP1;P1;durP2;ratioP2;P2;SDS_P1;SDS_P2;PMS_P1;PMS_P2;Temp;Humidity;BMP_temperature;BMP_pressure;BME280_temperature;BME280_humidity;BME280_pressure;Samples;Min_cycle;Max_cycle;Signal;HPM_P1;HPM_P2
2023/10/21 00:01:05;;;;;;;72.97;6.27;;;;;;;22.99;53.42;96952.38;7313411;19;130388;-34
2023/10/21 00:03:30;;;;;;;37.97;4.78;;;;;;;22.98;53.98;96962.03;7316628;19;129137;-35
2023/10/21 00:05:56;;;;;;;44.03;4.67;;;;;;;22.97;54.56;96955.19;7313357;19;128722;-35
2023/10/21 00:08:21;;;;;;;46.03;4.87;;;;;;;22.95;54.74;96951.19;7315419;19;129657;-32
2023/10/21 00:10:47;;;;;;;80.73;6.63;;;;;;;22.91;54.91;96960.47;7313067;19;130845;-37
2023/10/21 00:13:12;;;;;;;33.23;4.23;;;;;;;22.94;55.30;96965.31;7316220;19;131231;-34
2023/10/21 00:15:40;;;;;;;42.40;4.47;;;;;;;22.93;55.19;96968.94;7313854;19;130844;-36
2023/10/21 00:18:05;;;;;;;57.85;5.70;;;;;;;22.91;55.25;96971.75;7311909;19;129776;-35
2023/10/21 00:20:30;;;;;;;68.10;6.03;;;;;;;22.91;55.38;96974.38;7313922;19;129124;-32
2023/10/21 00:22:56;;;;;;;30.53;4.23;;;;;;;22.91;55.20;96973.56;7315232;19;128996;-36
2023/10/21 00:25:21;;;;;;;8.47;3.43;;;;;;;22.88;55.76;96984.47;7315004;19;129267;-34
2023/10/21 00:27:46;;;;;;;96.00;6.87;;;;;;;22.86;55.11;96994.34;7313627;19;129426;-35
2023/10/21 00:30:13;;;;;;;50.37;5.00;;;;;;;22.87;52.59;96995.97;7312162;19;129344;-34
2023/10/21 00:32:38;;;;;;;25.10;4.35;;;;;;;23.01;52.26;96997.50;7313592;19;129681;-32
2023/10/21 00:35:04;;;;;;;28.80;4.00;;;;;;;23.05;51.45;96996.06;7314800;19;129270;-33
2023/10/21 00:37:30;;;;;;;76.87;5.70;;;;;;;23.10;51.02;96998.84;7314570;19;130192;-32
2023/10/21 00:39:55;;;;;;;64.70;5.88;;;;;;;23.16;51.88;96998.00;7310753;19;129326;-33
2023/10/21 00:42:20;;;;;;;16.30;3.53;;;;;;;23.10;52.03;96996.22;7313959;19;128797;-36
2023/10/21 00:44:46;;;;;;;52.80;5.43;;;;;;;23.04;52.99;97004.91;7314272;19;129140;-32
2023/10/21 00:47:11;;;;;;;103.03;7.57;;;;;;;22.99;53.36;97015.25;7314094;19;129060;-36
2023/10/21 00:49:37;;;;;;;39.47;4.53;;;;;;;22.97;53.90;97004.19;7313711;19;129086;-37
2023/10/21 00:52:04;;;;;;;31.05;4.35;;;;;;;22.97;53.98;97007.59;7313443;19;129502;-34
2023/10/21 00:54:29;;;;;;;34.97;4.22;;;;;;;22.86;54.63;96999.59;7314283;19;129477;-34
2023/10/21 00:56:54;;;;;;;80.43;6.43;;;;;;;22.90;54.90;96998.16;7313935;19;130163;-35
2023/10/21 00:59:21;;;;;;;26.42;4.03;;;;;;;22.92;54.59;96985.66;7312529;19;129647;-34
2023/10/21 01:01:47;;;;;;;54.00;5.20;;;;;;;22.90;54.93;96985.88;7311111;19;128956;-35
2023/10/21 01:04:13;;;;;;;53.23;5.10;;;;;;;22.91;54.89;96991.91;7312972;19;129750;-32
2023/10/21 01:06:39;;;;;;;64.57;5.97;;;;;;;22.89;55.46;97001.81;7313598;19;129936;-39
2023/10/21 01:09:04;;;;;;;35.77;4.43;;;;;;;22.88;55.80;97002.81;7312871;19;130132;-33
2023/10/21 01:11:30;;;;;;;35.13;4.47;;;;;;;22.85;55.91;96998.81;7312031;19;128737;-34
2023/10/21 01:13:56;;;;;;;85.87;6.90;;;;;;;22.88;55.99;97002.81;7312526;19;129134;-38
2023/10/21 01:16:22;;;;;;;62.37;5.40;;;;;;;22.83;53.65;97010.50;7314436;19;130344;-36
2023/10/21 01:18:47;;;;;;;84.23;6.77;;;;;;;22.92;52.60;97009.25;7311948;19;129761;-33
2023/10/21 01:21:12;;;;;;;5.57;3.15;;;;;;;23.02;51.52;97009.59;7311613;19;128810;-33
2023/10/21 01:23:39;;;;;;;72.25;5.80;;;;;;;23.04;51.57;97002.31;7312563;19;130766;-34
2023/10/21 01:26:05;;;;;;;53.92;4.85;;;;;;;23.11;51.04;97010.94;7311589;19;129645;-34
2023/10/21 01:28:30;;;;;;;37.43;4.20;;;;;;;23.14;52.42;97018.38;7313817;19;131106;-34
2023/10/21 01:30:56;;;;;;;58.23;5.43;;;;;;;23.06;52.92;97026.50;7309280;19;130060;-36
2023/10/21 01:33:22;;;;;;;80.90;6.13;;;;;;;22.99;53.72;97031.00;7312642;19;129309;-35
2023/10/21 01:35:47;;;;;;;54.20;5.40;;;;;;;22.94;53.69;97015.09;7313322;19;129061;-34
2023/10/21 01:38:15;;;;;;;37.60;4.43;;;;;;;22.81;54.62;96996.81;7308562;19;130239;-32
2023/10/21 01:40:40;;;;;;;32.25;4.25;;;;;;;22.94;54.78;97038.66;7309812;19;128974;-38
2023/10/21 01:43:06;;;;;;;101.53;6.80;;;;;;;22.91;54.64;97046.94;7312286;19;128840;-35
2023/10/21 01:45:34;;;;;;;38.63;4.27;;;;;;;22.77;54.86;97027.06;7312979;19;129238;-36
2023/10/21 01:48:00;;;;;;;60.88;5.88;;;;;;;22.73;55.31;97024.06;7310477;19;130343;-36
2023/10/21 01:50:25;;;;;;;67.23;5.90;;;;;;;22.88;54.86;97057.84;7308570;19;128863;-33
2023/10/21 01:52:50;;;;;;;112.67;7.93;;;;;;;22.87;55.76;97064.09;7311479;19;129239;-39
2023/10/21 01:55:16;;;;;;;32.03;4.17;;;;;;;22.87;55.18;97064.09;7312180;19;129699;-36
2023/10/21 01:57:42;;;;;;;29.87;4.27;;;;;;;22.75;55.56;97042.19;7311430;19;129470;-35
2023/10/21 02:00:10;;;;;;;28.33;3.97;;;;;;;22.87;55.90;97067.50;7306616;19;129187;-34
2023/10/21 02:02:36;;;;;;;51.22;4.72;;;;;;;22.85;52.94;97064.31;7312129;19;128944;-37
2023/10/21 02:05:02;;;;;;;31.23;3.70;;;;;;;22.93;52.24;97058.00;7307625;19;129422;-34
2023/10/21 02:07:28;;;;;;;31.03;4.10;;;;;;;23.00;52.15;97062.22;7312311;19;129747;-34
2023/10/21 02:09:53;;;;;;;62.83;5.27;;;;;;;23.06;51.03;97074.47;7309478;19;129197;-32
2023/10/21 02:12:18;;;;;;;84.87;6.17;;;;;;;23.11;51.35;97081.69;7311162;19;129438;-38
2023/10/21 02:14:44;;;;;;;24.53;3.47;;;;;;;23.10;52.44;97085.34;7311648;19;129602;-36
2023/10/21 02:17:09;;;;;;;38.72;4.25;;;;;;;23.02;53.32;97098.69;7311583;19;129360;-35
2023/10/21 02:19:35;;;;;;;43.37;4.23;;;;;;;22.96;53.57;97102.94;7309484;19;129657;-35
2023/10/21 02:22:00;;;;;;;68.77;5.57;;;;;;;22.94;53.87;97112.03;7310694;19;129582;-35
2023/10/21 02:24:25;;;;;;;40.00;4.43;;;;;;;22.80;54.33;97094.75;7310828;19;129492;-35
2023/10/21 02:26:51;;;;;;;31.10;3.83;;;;;;;22.93;54.87;97119.09;7311028;19;130315;-35
2023/10/21 02:29:16;;;;;;;66.60;5.47;;;;;;;22.78;54.85;97104.63;7311166;19;128914;-34
2023/10/21 02:31:42;;;;;;;57.07;4.73;;;;;;;22.89;55.00;97130.19;7310579;19;129830;-34
2023/10/21 02:34:07;;;;;;;22.83;3.50;;;;;;;22.88;55.14;97128.56;7310437;19;130135;-38
2023/10/21 02:36:34;;;;;;;30.80;4.13;;;;;;;22.86;55.53;97133.22;7311420;19;129681;-33
2023/10/21 02:39:00;;;;;;;88.70;6.50;;;;;;;22.85;55.63;97134.22;7309956;19;129233;-35
2023/10/21 02:41:26;;;;;;;56.83;5.27;;;;;;;22.85;55.04;97129.00;7308644;19;129217;-34
2023/10/21 02:43:52;;;;;;;74.82;6.20;;;;;;;22.85;55.20;97124.56;7310781;19;130030;-35
2023/10/21 02:46:17;;;;;;;39.77;4.37;;;;;;;22.83;55.80;97123.16;7311155;19;129566;-35
2023/10/21 02:48:43;;;;;;;92.33;6.97;;;;;;;22.81;53.38;97138.25;7310711;19;129049;-31
2023/10/21 02:51:17;;;;;;;36.23;4.00;;;;;;;22.82;52.09;97121.56;7310494;19;129588;-36
2023/10/21 02:53:44;;;;;;;29.35;3.83;;;;;;;22.98;51.99;97124.50;7310507;19;130111;-34
2023/10/21 02:56:13;;;;;;;59.67;5.20;;;;;;;23.06;51.24;97123.44;7308946;19;133053;-32
2023/10/21 02:58:39;;;;;;;91.20;7.13;;;;;;;23.12;51.57;97114.78;7310273;19;129189;-33
2023/10/21 03:01:17;;;;;;;54.50;4.93;;;;;;;23.07;53.16;97122.47;7309466;19;129792;-35
2023/10/21 03:03:44;;;;;;;38.90;4.13;;;;;;;22.99;53.32;97120.06;7311904;19;129792;-37
2023/10/21 03:06:10;;;;;;;21.02;3.47;;;;;;;22.93;53.72;97121.69;7309144;19;129211;-33
2023/10/21 03:08:36;;;;;;;51.40;4.67;;;;;;;22.92;53.70;97112.22;7307425;19;129068;-31
2023/10/21 03:11:03;;;;;;;96.07;6.90;;;;;;;22.92;54.73;97120.06;7308664;19;129156;-33
2023/10/21 03:13:30;;;;;;;29.92;3.72;;;;;;;22.91;54.89;97125.53;7311882;19;129302;-35
2023/10/21 03:15:55;;;;;;;55.35;5.00;;;;;;;22.89;54.92;97132.81;7310635;19;130381;-35
2023/10/21 03:18:21;;;;;;;40.93;4.53;;;;;;;22.86;54.66;97133.22;7308909;19;129240;-33
2023/10/21 03:20:50;;;;;;;82.27;5.80;;;;;;;22.82;55.72;97135.47;7304585;19;129461;-35
2023/10/21 03:23:15;;;;;;;34.08;4.15;;;;;;;22.85;55.00;97129.00;7310705;19;130274;-35
2023/10/21 03:25:40;;;;;;;35.87;3.97;;;;;;;22.85;55.44;97139.47;7309547;19;129147;-34
2023/10/21 03:28:06;;;;;;;32.00;3.95;;;;;;;22.83;55.87;97138.88;7310369;19;129594;-34
2023/10/21 03:30:31;;;;;;;73.63;5.23;;;;;;;22.83;55.57;97146.72;7307482;19;129957;-34
2023/10/21 03:32:56;;;;;;;48.50;4.17;;;;;;;22.77;54.92;97129.22;7310558;19;130696;-34
2023/10/21 03:35:22;;;;;;;32.93;3.83;;;;;;;22.80;53.19;97131.44;7308500;19;130329;-34
2023/10/21 03:37:47;;;;;;;38.17;4.07;;;;;;;22.90;52.18;97131.78;7308781;19;129697;-36
2023/10/21 03:40:13;;;;;;;57.00;5.00;;;;;;;22.97;51.23;97122.88;7306783;19;129406;-38
2023/10/21 03:42:38;;;;;;;32.97;3.80;;;;;;;23.05;51.41;97129.72;7308728;19;129493;-33
2023/10/21 03:45:05;;;;;;;50.97;4.65;;;;;;;23.16;51.52;97139.53;7308974;19;129371;-33
2023/10/21 03:47:30;;;;;;;;;;;;;;;23.08;53.10;97145.03;7310212;19;129391;-35
2023/10/21 03:49:57;;;;;;;90.20;6.73;;;;;;;22.94;52.94;97138.25;7307390;19;129051;-37
2023/10/21 03:52:22;;;;;;;;;;;;;;;22.81;54.34;97133.03;7309592;19;130358;-34
2023/10/21 03:54:48;;;;;;;35.60;4.17;;;;;;;22.93;54.05;97163.63;7308625;19;129090;-40
2023/10/21 03:57:13;;;;;;;54.28;4.20;;;;;;;22.82;54.42;97150.38;7309702;19;129495;-35
2023/10/21 03:59:38;;;;;;;69.20;5.32;;;;;;;22.87;54.45;97171.50;7307533;19;129461;-36
2023/10/21 04:02:04;;;;;;;54.28;5.15;;;;;;;22.89;55.02;97179.97;7314991;19;129454;-34
2023/10/21 04:04:29;;;;;;;30.87;3.57;;;;;;;22.86;55.04;97186.41;7313713;19;130360;-36
2023/10/21 04:06:54;;;;;;;106.17;6.97;;;;;;;22.87;54.76;97193.25;7315017;19;129900;-31
2023/10/21 04:09:20;;;;;;;38.40;3.97;;;;;;;22.84;55.23;97175.34;7316648;19;129088;-34
2023/10/21 04:11:45;;;;;;;32.80;3.65;;;;;;;22.84;55.53;97177.16;7313808;19;129467;-35
2023/10/21 04:14:10;;;;;;;15.40;3.17;;;;;;;22.84;55.45;97171.94;7315649;19;129635;-34
2023/10/21 04:16:36;;;;;;;93.97;6.32;;;;;;;22.82;55.82;97168.69;7313424;19;128991;-35
2023/10/21 04:19:02;;;;;;;54.38;5.05;;;;;;;22.73;53.74;97181.22;7315218;19;129313;-35
2023/10/21 04:21:27;;;;;;;45.30;4.53;;;;;;;22.83;52.95;97191.25;7313445;19;130788;-34
2023/10/21 04:23:52;;;;;;;43.13;4.37;;;;;;;22.91;52.08;97185.78;7315837;19;131004;-34
2023/10/21 04:26:18;;;;;;;109.70;6.77;;;;;;;22.98;51.62;97194.44;7315230;19;129059;-36
2023/10/21 04:28:43;;;;;;;73.13;6.17;;;;;;;23.00;51.01;97193.25;7315785;19;129015;-31
2023/10/21 04:31:08;;;;;;;36.20;4.03;;;;;;;23.09;52.50;97193.78;7312715;19;129249;-33
2023/10/21 04:33:34;;;;;;;33.30;3.80;;;;;;;23.02;52.49;97208.75;7313308;19;129578;-35
2023/10/21 04:36:00;;;;;;;89.77;6.27;;;;;;;22.94;52.90;97193.25;7315599;19;132451;-37
2023/10/21 04:38:25;;;;;;;32.43;3.57;;;;;;;22.89;54.16;97198.31;7314521;19;129462;-30
2023/10/21 04:40:50;;;;;;;38.47;4.20;;;;;;;22.91;54.22;97217.22;7311451;19;129616;-38
2023/10/21 04:43:16;;;;;;;39.55;4.18;;;;;;;22.91;54.34;97222.47;7314807;19;129769;-36
2023/10/21 04:45:41;;;;;;;51.90;4.40;;;;;;;22.88;54.52;97221.09;7315695;19;129223;-34
2023/10/21 04:48:07;;;;;;;54.65;4.78;;;;;;;22.86;55.02;97224.91;7315119;19;130028;-32
2023/10/21 04:50:32;;;;;;;48.20;4.47;;;;;;;22.86;55.29;97232.75;7310201;19;130789;-32
2023/10/21 04:52:58;;;;;;;108.35;6.88;;;;;;;22.85;54.94;97233.78;7314302;19;129439;-34
2023/10/21 04:55:23;;;;;;;60.77;5.20;;;;;;;22.84;55.31;97237.44;7314678;19;130025;-34
2023/10/21 04:57:48;;;;;;;19.20;3.23;;;;;;;22.82;55.56;97244.69;7314573;19;128994;-34
2023/10/21 05:00:14;;;;;;;45.20;4.23;;;;;;;22.81;55.21;97241.25;7310953;19;130136;-34
2023/10/21 05:02:40;;;;;;;65.50;5.20;;;;;;;22.78;55.83;97236.41;7313384;19;130164;-33
2023/10/21 05:05:06;;;;;;;53.03;4.63;;;;;;;22.74;53.48;97242.28;7314378;19;129590;-34
2023/10/21 05:07:31;;;;;;;42.33;4.50;;;;;;;22.76;52.78;97237.63;7311096;19;129556;-36
2023/10/21 05:09:57;;;;;;;31.70;4.07;;;;;;;22.88;52.11;97239.44;7310992;19;130256;-35
2023/10/21 05:12:23;;;;;;;71.93;5.30;;;;;;;22.98;51.67;97252.09;7309098;19;130351;-36
2023/10/21 05:14:48;;;;;;;35.38;3.60;;;;;;;23.02;51.56;97240.22;7314059;19;129105;-33
2023/10/21 05:17:14;;;;;;;34.37;3.90;;;;;;;23.04;51.54;97254.69;7313373;19;129569;-35
2023/10/21 05:19:39;;;;;;;37.70;3.55;;;;;;;22.99;52.87;97256.34;7310274;19;129268;-36
2023/10/21 05:22:05;;;;;;;83.73;5.90;;;;;;;22.91;52.57;97252.13;7310865;19;130408;-38
2023/10/21 05:24:30;;;;;;;40.80;3.83;;;;;;;22.88;53.86;97244.66;7309694;19;130907;-34
2023/10/21 05:26:55;;;;;;;64.07;5.22;;;;;;;22.88;53.88;97254.31;7307995;19;128970;-37
2023/10/21 05:29:21;;;;;;;65.03;5.17;;;;;;;22.86;54.02;97266.81;7311379;19;131176;-31
2023/10/21 05:31:47;;;;;;;62.80;5.23;;;;;;;22.84;55.06;97266.25;7308773;19;130024;-33
2023/10/21 05:34:17;;;;;;;69.63;5.95;;;;;;;22.69;54.86;97248.09;7311494;19;128935;-36
2023/10/21 05:36:44;;;;;;;30.88;3.55;;;;;;;22.84;54.64;97289.81;7308847;19;129426;-32
2023/10/21 05:39:11;;;;;;;85.25;6.55;;;;;;;22.82;55.02;97286.59;7309270;19;130378;-35
2023/10/21 05:41:37;;;;;;;56.03;4.70;;;;;;;22.82;54.96;97297.06;7304341;19;132690;-34
2023/10/21 05:44:02;;;;;;;63.17;5.20;;;;;;;22.82;55.28;97297.06;7310416;19;132009;-33
2023/10/21 05:46:28;;;;;;;36.85;3.58;;;;;;;22.81;55.24;97295.44;7310352;19;128890;-33
2023/10/21 05:48:53;;;;;;;66.70;5.10;;;;;;;22.79;55.76;97302.72;7306845;19;129141;-32
2023/10/21 05:51:18;;;;;;;39.08;3.90;;;;;;;22.73;54.34;97303.50;7308204;19;129355;-33
2023/10/21 05:53:44;;;;;;;43.87;4.00;;;;;;;22.77;53.19;97315.22;7306990;19;129105;-34
2023/10/21 05:56:12;;;;;;;71.88;5.28;;;;;;;22.89;52.49;97318.84;7310394;19;129145;-33
2023/10/21 05:58:38;;;;;;;83.55;5.70;;;;;;;22.95;51.37;97325.88;7309497;19;130065;-32
2023/10/21 06:01:08;;;;;;;72.70;5.43;;;;;;;22.88;51.69;97317.22;7310876;19;130524;-33
2023/10/21 06:03:35;;;;;;;91.70;6.50;;;;;;;23.04;52.08;97343.81;7310880;19;130746;-41
2023/10/21 06:06:01;;;;;;;78.40;5.82;;;;;;;22.96;52.57;97345.81;7309804;19;129370;-34
2023/10/21 06:08:28;;;;;;;60.33;4.83;;;;;;;22.90;53.16;97347.47;7310097;19;129416;-37
2023/10/21 06:10:54;;;;;;;55.47;4.45;;;;;;;22.88;53.87;97348.66;7308709;19;130411;-33
2023/10/21 06:13:19;;;;;;;44.57;4.13;;;;;;;22.86;54.57;97359.34;7309784;19;129370;-34
2023/10/21 06:15:46;;;;;;;32.88;3.55;;;;;;;22.74;54.50;97336.56;7311344;19;129894;-33
2023/10/21 06:18:12;;;;;;;103.35;7.13;;;;;;;22.85;54.35;97370.84;7310700;19;130005;-33
2023/10/21 06:20:37;;;;;;;36.80;3.43;;;;;;;22.83;55.22;97366.78;7305808;19;129722;-37
2023/10/21 06:23:04;;;;;;;59.93;5.27;;;;;;;22.82;55.07;97378.28;7310979;19;128644;-35
2023/10/21 06:25:30;;;;;;;;;;;;;;;22.82;56.36;97375.66;7309214;19;129348;-33
2023/10/21 06:27:55;;;;;;;72.50;5.22;;;;;;;22.80;55.30;97388.16;7310338;19;130302;-36
2023/10/21 06:30:20;;;;;;;47.67;4.20;;;;;;;22.78;55.49;97396.22;7309484;19;130457;-36
2023/10/21 06:32:46;;;;;;;46.47;4.30;;;;;;;22.77;55.88;97399.84;7309214;19;129084;-33
2023/10/21 06:35:11;;;;;;;50.53;4.80;;;;;;;22.78;55.96;97403.25;7309708;19;129950;-33
2023/10/21 06:37:37;;;;;;;46.92;3.88;;;;;;;22.72;53.39;97411.94;7310898;19;130119;-35
2023/10/21 06:40:04;;;;;;;66.63;5.45;;;;;;;22.82;52.84;97422.81;7306952;19;131360;-33
2023/10/21 06:42:29;;;;;;;74.20;5.68;;;;;;;22.90;51.64;97420.00;7308615;19;129246;-33
2023/10/21 06:44:55;;;;;;;17.60;2.67;;;;;;;22.97;51.74;97415.59;7309239;19;129007;-37
2023/10/21 06:47:21;;;;;;;92.63;5.80;;;;;;;23.01;50.83;97416.78;7310294;19;130921;-34
2023/10/21 06:49:46;;;;;;;34.13;3.70;;;;;;;23.04;51.97;97413.75;7311148;19;130510;-34
2023/10/21 06:52:11;;;;;;;58.13;5.10;;;;;;;22.93;52.50;97419.59;7310693;19;129083;-35
2023/10/21 06:54:37;;;;;;;71.80;5.70;;;;;;;22.88;53.21;97427.25;7308098;19;129740;-33
2023/10/21 06:57:03;;;;;;;111.57;7.40;;;;;;;22.86;53.65;97431.88;7309462;19;131222;-35
2023/10/21 06:59:32;;;;;;;44.00;4.17;;;;;;;22.87;53.95;97449.25;7310178;19;131088;-33
2023/10/21 07:01:57;;;;;;;136.75;9.00;;;;;;;22.85;53.97;97464.34;7307248;19;129430;-38
2023/10/21 07:04:22;;;;;;;34.70;3.87;;;;;;;22.85;54.69;97459.09;7305365;19;129282;-35
2023/10/21 07:06:48;;;;;;;80.53;5.85;;;;;;;22.82;54.86;97464.75;7304189;19;129456;-34
2023/10/21 07:09:13;;;;;;;75.10;6.23;;;;;;;22.80;55.05;97470.19;7309012;19;132125;-38
2023/10/21 07:11:40;;;;;;;84.65;7.18;;;;;;;22.76;54.72;97465.53;7294364;19;130732;-33
2023/10/21 07:14:05;;;;;;;67.93;5.38;;;;;;;22.77;54.97;97472.38;7293314;19;130576;-32
2023/10/21 07:16:31;;;;;;;62.13;5.20;;;;;;;22.78;55.56;97474.00;7307497;19;130243;-36
2023/10/21 07:18:57;;;;;;;56.47;5.40;;;;;;;22.77;55.46;97475.00;7306631;19;129402;-37
2023/10/21 07:21:22;;;;;;;64.67;6.13;;;;;;;22.75;56.14;97475.22;7300048;19;130303;-33
2023/10/21 07:23:48;;;;;;;72.77;6.13;;;;;;;22.67;52.26;97477.19;7304488;19;130438;-36
2023/10/21 07:26:13;;;;;;;100.07;7.13;;;;;;;22.75;52.26;97479.63;7308259;19;129215;-35
2023/10/21 07:28:38;;;;;;;77.53;7.13;;;;;;;22.77;51.63;97480.25;7303443;19;130475;-33
2023/10/21 07:31:04;;;;;;;60.33;6.22;;;;;;;22.85;51.39;97490.53;7306056;19;130869;-33
2023/10/21 07:33:29;;;;;;;67.77;6.17;;;;;;;22.81;51.89;97482.28;7309137;19;129060;-35
2023/10/21 07:35:55;;;;;;;35.95;4.70;;;;;;;22.84;53.16;97499.41;7309496;19;131352;-34
2023/10/21 07:38:21;;;;;;;45.73;4.80;;;;;;;22.67;53.03;97480.63;7314255;19;129530;-34
2023/10/21 07:40:47;;;;;;;37.15;4.80;;;;;;;22.77;54.46;97506.44;7309734;19;129392;-35
2023/10/21 07:43:13;;;;;;;104.22;7.80;;;;;;;22.76;54.75;97515.28;7313192;19;129181;-36
2023/10/21 07:45:42;;;;;;;46.40;4.82;;;;;;;22.75;54.31;97525.00;7315284;19;129653;-35
2023/10/21 07:48:07;;;;;;;88.60;7.55;;;;;;;22.72;54.88;97517.53;7310302;19;129443;-35
2023/10/21 07:50:33;;;;;;;94.90;7.37;;;;;;;22.64;54.94;97516.88;7305953;19;131187;-36
2023/10/21 07:52:58;;;;;;;63.08;5.53;;;;;;;22.71;54.96;97542.09;7315766;19;129014;-37
2023/10/21 07:55:24;;;;;;;44.08;4.82;;;;;;;22.72;55.22;97546.34;7314643;19;130130;-33
2023/10/21 07:57:49;;;;;;;37.80;4.77;;;;;;;22.72;55.57;97550.75;7312334;19;130217;-37
2023/10/21 08:00:15;;;;;;;85.30;7.40;;;;;;;22.69;55.44;97554.56;7311793;19;129222;-35
2023/10/21 08:02:41;;;;;;;157.33;10.60;;;;;;;22.70;55.29;97555.38;7309192;19;129060;-39
2023/10/21 08:05:07;;;;;;;49.73;5.53;;;;;;;22.62;53.30;97563.41;7314881;19;130334;-35
2023/10/21 08:07:34;;;;;;;46.20;4.90;;;;;;;22.71;52.60;97551.78;7313655;19;130345;-36
2023/10/21 08:09:59;;;;;;;45.58;4.72;;;;;;;22.77;51.86;97567.53;7313749;19;128982;-35
2023/10/21 08:12:25;;;;;;;87.25;6.35;;;;;;;22.82;51.09;97572.97;7311605;19;129404;-34
2023/10/21 08:14:50;;;;;;;42.07;4.53;;;;;;;22.87;51.36;97577.63;7311802;19;130403;-34
2023/10/21 08:17:17;;;;;;;55.13;5.33;;;;;;;22.87;53.04;97583.66;7313319;19;129273;-33
2023/10/21 08:19:43;;;;;;;;;;;;;;;22.81;54.22;97579.22;7311244;19;129032;-36
2023/10/21 08:22:08;;;;;;;68.07;5.97;;;;;;;22.78;53.25;97581.41;7314432;19;129075;-36
2023/10/21 08:24:33;;;;;;;66.40;5.77;;;;;;;22.72;53.80;97564.69;7311263;19;129475;-37
2023/10/21 08:26:59;;;;;;;53.15;4.85;;;;;;;22.76;53.93;97586.84;7312630;19;129266;-34
2023/10/21 08:29:25;;;;;;;73.57;6.30;;;;;;;22.76;54.77;97592.09;7310428;19;129229;-33
2023/10/21 08:31:51;;;;;;;56.40;5.17;;;;;;;22.74;54.98;97593.28;7313152;19;128910;-37
2023/10/21 08:34:16;;;;;;;50.17;5.37;;;;;;;22.75;55.21;97597.53;7309970;19;128966;-33
2023/10/21 08:36:42;;;;;;;36.15;4.68;;;;;;;22.70;54.66;97589.44;7313134;19;129579;-34
2023/10/21 08:39:08;;;;;;;178.30;12.17;;;;;;;22.58;54.86;97578.72;7303312;19;130664;-38
2023/10/21 08:41:42;;;;;;;74.53;6.63;;;;;;;22.72;56.19;97603.16;7306412;19;131052;-35
2023/10/21 08:44:08;;;;;;;74.82;6.68;;;;;;;22.70;55.47;97607.78;7303984;19;130125;-34
2023/10/21 08:46:34;;;;;;;65.50;6.13;;;;;;;22.71;55.12;97619.88;7304378;19;130338;-34
2023/10/21 08:49:04;;;;;;;77.78;6.45;;;;;;;22.61;56.51;97598.47;7305954;19;129921;-37
2023/10/21 08:51:32;;;;;;;89.40;6.95;;;;;;;22.68;53.05;97615.00;7302789;19;131731;-36
2023/10/21 08:54:05;;;;;;;85.20;7.07;;;;;;;22.78;52.30;97623.31;7302113;19;130889;-34
2023/10/21 08:56:33;;;;;;;79.45;6.47;;;;;;;22.73;51.61;97613.44;7300320;19;129272;-39
2023/10/21 08:58:59;;;;;;;95.13;6.95;;;;;;;22.88;51.08;97623.78;7300450;19;131749;-34
2023/10/21 09:01:25;;;;;;;115.30;8.07;;;;;;;22.99;52.41;97638.97;7298593;19;130876;-38
2023/10/21 09:03:51;;;;;;;70.67;5.87;;;;;;;22.80;52.67;97631.81;7303315;19;130380;-35
2023/10/21 09:06:19;;;;;;;83.53;6.93;;;;;;;22.79;53.43;97638.84;7305883;19;133816;-35
2023/10/21 09:08:47;;;;;;;85.07;6.55;;;;;;;22.79;54.00;97653.78;7309150;19;128956;-35
2023/10/21 09:11:15;;;;;;;92.55;6.82;;;;;;;22.62;54.64;97626.28;7306637;19;129380;-33
2023/10/21 09:13:41;;;;;;;89.53;7.07;;;;;;;22.77;54.74;97661.00;7302746;19;130221;-38
2023/10/21 09:16:24;;;;;;;63.77;5.37;;;;;;;22.72;55.65;97651.13;7305284;19;129734;-36
2023/10/21 09:19:05;;;;;;;185.77;12.15;;;;;;;22.73;55.82;97659.78;7301892;19;130689;-33
2023/10/21 09:21:44;;;;;;;114.13;8.25;;;;;;;22.74;55.04;97658.78;7298976;19;130636;-34
2023/10/21 09:24:21;;;;;;;48.58;4.65;;;;;;;22.73;55.24;97663.22;7305721;19;130393;-35
2023/10/21 09:26:47;;;;;;;36.40;4.25;;;;;;;22.72;55.50;97676.50;7311767;19;129321;-36
2023/10/21 09:29:14;;;;;;;111.00;7.67;;;;;;;22.72;55.36;97684.38;7309662;19;129882;-33
2023/10/21 09:31:51;;;;;;;42.40;4.45;;;;;;;22.70;56.14;97686.38;7307233;19;131983;-34
2023/10/21 09:34:27;;;;;;;59.27;5.27;;;;;;;22.69;56.15;97697.84;7310726;19;130230;-31
2023/10/21 09:36:58;;;;;;;39.25;3.90;;;;;;;22.63;53.15;97685.50;7309823;19;131963;-32
2023/10/21 09:39:25;;;;;;;57.67;5.38;;;;;;;22.77;52.03;97698.50;7309196;19;132047;-37
2023/10/21 09:41:50;;;;;;;113.05;7.25;;;;;;;22.85;52.16;97708.84;7305554;19;130085;-34
2023/10/21 09:44:16;;;;;;;97.67;6.90;;;;;;;22.89;51.54;97704.03;7311332;19;130269;-36
2023/10/21 09:46:46;;;;;;;30.63;3.17;;;;;;;22.93;51.83;97707.84;7313491;19;130306;-34
2023/10/21 09:49:15;;;;;;;47.50;4.40;;;;;;;22.88;53.01;97710.25;7309145;19;129743;-35
2023/10/21 09:51:56;;;;;;;80.30;5.57;;;;;;;22.80;53.51;97713.03;7310017;19;128963;-35
2023/10/21 09:54:30;;;;;;;93.47;6.30;;;;;;;22.79;54.83;97716.66;7309429;19;129155;-37
2023/10/21 09:56:58;;;;;;;52.28;4.50;;;;;;;22.79;54.11;97727.13;7311040;19;129292;-32
2023/10/21 09:59:24;;;;;;;81.78;6.68;;;;;;;22.77;54.58;97729.94;7303011;19;129498;-37
2023/10/21 10:01:52;;;;;;;43.50;4.20;;;;;;;22.76;55.16;97727.50;7310875;19;130560;-31
2023/10/21 10:04:20;;;;;;;99.93;6.63;;;;;;;22.75;55.43;97731.13;7305474;19;130562;-33
2023/10/21 10:06:52;;;;;;;62.47;4.85;;;;;;;22.70;55.43;97734.34;7308266;19;129724;-32
2023/10/21 10:09:18;;;;;;;69.32;5.78;;;;;;;22.74;55.16;97734.75;7308305;19;129293;-31
2023/10/21 10:11:43;;;;;;;51.93;4.53;;;;;;;22.72;54.98;97740.19;7308008;19;129300;-34
2023/10/21 10:14:11;;;;;;;92.57;6.47;;;;;;;22.69;55.15;97747.63;7301354;19;130231;-35
2023/10/21 10:16:41;;;;;;;58.88;4.78;;;;;;;22.65;56.35;97743.75;7309257;19;130688;-37
2023/10/21 10:19:09;;;;;;;42.28;3.40;;;;;;;22.63;55.30;97745.75;7307331;19;129385;-35
2023/10/21 10:21:35;;;;;;;39.90;3.13;;;;;;;22.61;55.31;97759.03;7303051;19;129315;-34
2023/10/21 10:24:04;;;;;;;153.63;9.43;;;;;;;22.60;55.14;97757.44;7305154;19;129555;-35
2023/10/21 10:26:37;;;;;;;131.60;7.55;;;;;;;22.59;56.01;97762.88;7309100;19;130404;-40
2023/10/21 10:29:25;;;;;;;95.03;5.25;;;;;;;22.59;56.75;97762.88;7307807;19;129432;-36
2023/10/21 10:32:14;;;;;;;46.72;2.88;;;;;;;22.56;56.11;97760.63;7309695;19;128993;-36
2023/10/21 10:34:52;;;;;;;47.45;2.80;;;;;;;22.49;50.96;97767.59;7306138;19;131069;-33
2023/10/21 10:37:37;;;;;;;65.93;4.03;;;;;;;22.54;49.33;97767.84;7306338;19;130502;-33
2023/10/21 10:40:19;;;;;;;48.90;2.67;;;;;;;22.61;51.98;97772.13;7306042;19;129416;-34
2023/10/21 10:42:45;;;;;;;52.22;3.10;;;;;;;22.59;50.79;97781.97;7306781;19;131632;-34
2023/10/21 10:45:11;;;;;;;32.97;1.90;;;;;;;22.57;52.17;97775.34;7307144;19;129292;-32
2023/10/21 10:47:39;;;;;;;59.93;3.03;;;;;;;22.43;53.14;97768.34;7309047;19;129619;-33
2023/10/21 10:50:12;;;;;;;59.20;3.00;;;;;;;22.55;52.89;97793.03;7306891;19;129391;-34
2023/10/21 10:52:38;;;;;;;51.10;2.90;;;;;;;22.55;53.11;97787.78;7308681;19;129124;-35
2023/10/21 10:55:06;;;;;;;98.60;5.47;;;;;;;22.53;53.21;97801.09;7306053;19;130396;-35
2023/10/21 10:57:31;;;;;;;62.35;3.47;;;;;;;22.52;53.40;97798.63;7301938;19;130357;-35
2023/10/21 10:59:56;;;;;;;75.97;3.70;;;;;;;22.52;53.32;97814.34;7308729;19;129202;-35
2023/10/21 11:02:24;;;;;;;83.70;4.80;;;;;;;22.53;53.27;97800.28;7305425;19;129610;-34
2023/10/21 11:04:49;;;;;;;54.10;3.17;;;;;;;22.51;54.09;97812.72;7309128;19;130202;-35
2023/10/21 11:07:16;;;;;;;97.87;5.17;;;;;;;22.48;53.96;97815.69;7304870;19;129259;-39
2023/10/21 11:09:42;;;;;;;124.95;6.55;;;;;;;22.37;53.46;97805.75;7301358;19;129183;-34
2023/10/21 11:12:07;;;;;;;90.63;5.17;;;;;;;22.49;53.88;97825.19;7309539;19;128923;-36
2023/10/21 11:14:33;;;;;;;50.83;2.47;;;;;;;22.50;53.53;97826.81;7311865;19;130327;-33